Time;durP1;ratioP1;P1;durP2;ratioP2;P2;SDS_P1;SDS_P2;PMS_P1;PMS_P2;Temp;Humidity;BMP_temperature;BMP_pressure;BME280_temperature;BME280_humidity;BME280_pressure;Samples;Min_cycle;Max_cycle;Signal;HPM_P1;HPM_P2
2024/01/29 00:00:19;;;;;;;;;;;;;;;8.49;46.86;102311.91;4971791;27;98588;-73
2024/01/29 00:02:46;;;;;;;;;;;;;;;8.48;46.67;102310.22;4952328;27;99620;-66
2024/01/29 00:05:12;;;;;;;;;;;;;;;8.47;46.71;102308.59;4939162;27;98581;-66
2024/01/29 00:07:38;;;;;;;;;;;;;;;8.47;46.84;102310.44;4944548;27;99857;-66
2024/01/29 00:10:05;;;;;;;;;;;;;;;8.46;46.53;102312.31;4959533;27;97963;-73
2024/01/29 00:12:31;;;;;;;;;;;;;;;8.45;47.12;102310.66;4970668;27;98150;-74
2024/01/29 00:14:57;;;;;;;;;;;;;;;8.44;46.43;102305.47;4974440;27;99376;-73
2024/01/29 00:17:23;;;;;;;;;;;;;;;8.43;46.55;102307.34;4979292;27;105017;-66
2024/01/29 00:19:49;;;;;;;;;;;;;;;8.42;46.85;102305.69;4964197;27;98122;-66
2024/01/29 00:22:15;;;;;;;;;;;;;;;8.41;46.97;102303.19;4960214;27;98266;-66
2024/01/29 00:24:41;;;;;;;;;;;;;;;8.40;47.10;102304.25;4974023;27;99037;-65
2024/01/29 00:27:07;;;;;;;;;;;;;;;8.40;46.44;102301.56;4964159;27;98969;-73
2024/01/29 00:29:33;;;;;;;;;;;;;;;8.39;46.39;102305.28;4982422;27;118016;-73
2024/01/29 00:31:59;;;;;;;;;;;;;;;8.38;46.70;102304.47;4962008;27;98015;-65
2024/01/29 00:34:25;;;;;;;;;;;;;;;8.37;46.87;102297.44;4961670;27;98111;-66
2024/01/29 00:36:51;;;;;;;;;;;;;;;8.36;46.17;102296.56;4952551;27;106042;-73
2024/01/29 00:39:18;;;;;;;;;;;;;;;8.35;46.76;102304.84;4951313;27;107578;-73
2024/01/29 00:41:44;;;;;;;;;;;;;;;8.34;46.56;102292.44;4966741;27;98256;-66
2024/01/29 00:44:10;;;;;;;;;;;;;;;8.34;46.59;102303.19;4949441;27;100312;-73
2024/01/29 00:46:39;;;;;;;;;;;;;;;8.32;46.61;102298.00;4948903;27;123461;-65
2024/01/29 00:49:06;;;;;;;;;;;;;;;8.33;46.81;102301.53;4972422;27;98526;-73
2024/01/29 00:51:32;;;;;;;;;;;;;;;8.30;46.81;102293.91;4952148;27;100238;-73
2024/01/29 00:53:59;;;;;;;;;;;;;;;8.30;46.83;102302.78;4951125;27;98031;-65
2024/01/29 00:56:25;;;;;;;;;;;;;;;8.30;46.41;102305.47;4962675;27;99321;-66
2024/01/29 00:58:51;;;;;;;;;;;;;;;8.29;46.63;102301.13;4970530;27;98236;-66
2024/01/29 01:01:17;;;;;;;;;;;;;;;8.27;46.49;102305.88;4966630;27;99956;-73
2024/01/29 01:03:43;;;;;;;;;;;;;;;8.27;46.58;102305.06;4964478;27;98927;-72
2024/01/29 01:06:10;;;;;;;;;;;;;;;8.26;46.33;102306.91;4949331;27;99529;-66
2024/01/29 01:08:36;;;;;;;;;;;;;;;8.25;46.96;102294.53;4943482;27;98414;-66
2024/01/29 01:11:03;;;;;;;;;;;;;;;8.25;46.78;102291.84;4964446;27;98629;-73
2024/01/29 01:13:29;;;;;;;;;;;;;;;8.25;46.35;102285.63;4948108;27;98700;-66
2024/01/29 01:15:55;;;;;;;;;;;;;;;8.23;46.54;102291.22;4957731;27;98782;-65
2024/01/29 01:18:21;;;;;;;;;;;;;;;8.23;46.48;102283.16;4957480;27;98368;-73
2024/01/29 01:20:47;;;;;;;;;;;;;;;8.20;47.06;102269.31;4962139;27;100688;-66
2024/01/29 01:23:13;;;;;;;;;;;;;;;8.21;46.61;102276.31;4963917;27;98136;-66
2024/01/29 01:25:39;;;;;;;;;;;;;;;8.21;46.24;102270.94;4961183;28;98121;-65
2024/01/29 01:28:07;;;;;;;;;;;;;;;8.20;46.68;102266.63;4961018;27;98516;-73
2024/01/29 01:30:33;;;;;;;;;;;;;;;8.18;46.11;102271.38;4958589;27;98250;-65
2024/01/29 01:32:59;;;;;;;;;;;;;;;8.18;46.17;102271.38;4961942;27;98093;-66
2024/01/29 01:35:25;;;;;;;;;;;;;;;8.16;46.34;102271.56;4944500;27;113816;-73
2024/01/29 01:37:52;;;;;;;;;;;;;;;8.16;46.45;102274.25;4960820;27;98423;-65
2024/01/29 01:40:18;;;;;;;;;;;;;;;8.15;46.70;102275.31;4956630;27;101430;-72
2024/01/29 01:42:44;;;;;;;;;;;;;;;8.14;46.73;102273.66;4979563;27;97935;-65
2024/01/29 01:45:11;;;;;;;;;;;;;;;8.13;46.89;102266.59;4959505;27;98560;-73
2024/01/29 01:47:37;;;;;;;;;;;;;;;8.13;46.23;102261.25;4959549;27;98296;-65
2024/01/29 01:50:09;;;;;;;;;;;;;;;8.12;46.75;102265.78;4948619;27;98234;-73
2024/01/29 01:52:35;;;;;;;;;;;;;;;8.11;46.92;102260.63;4977317;27;98483;-72
2024/01/29 01:55:01;;;;;;;;;;;;;;;8.09;46.63;102262.69;4941270;27;98298;-72
2024/01/29 01:57:29;;;;;;;;;;;;;;;8.05;46.63;102258.75;4942054;28;98227;-65
2024/01/29 01:59:56;;;;;;;;;;;;;;;8.02;46.07;102259.19;4956614;27;98088;-72
2024/01/29 02:02:22;;;;;;;;;;;;;;;8.00;46.14;102256.72;4946261;27;98002;-72
2024/01/29 02:04:48;;;;;;;;;;;;;;;7.98;46.85;102250.72;4960018;28;100404;-73
2024/01/29 02:07:15;;;;;;;;;;;;;;;7.96;46.31;102254.66;4956451;27;98237;-64
2024/01/29 02:09:41;;;;;;;;;;;;;;;7.94;46.44;102252.19;4959447;28;98163;-65
2024/01/29 02:12:09;;;;;;;;;;;;;;;7.93;46.89;102247.81;4944237;27;97961;-65
2024/01/29 02:14:35;;;;;;;;;;;;;;;7.91;46.21;102246.38;4959644;28;99249;-72
2024/01/29 02:17:03;;;;;;;;;;;;;;;7.90;46.88;102244.72;4945708;27;98388;-65
2024/01/29 02:19:29;;;;;;;;;;;;;;;7.88;46.89;102237.69;4955629;27;99507;-65
2024/01/29 02:21:55;;;;;;;;;;;;;;;7.87;46.35;102229.88;4955729;27;98110;-73
2024/01/29 02:24:21;;;;;;;;;;;;;;;7.87;46.26;102229.88;4949756;27;98302;-65
2024/01/29 02:26:48;;;;;;;;;;;;;;;7.85;46.28;102229.22;4941173;28;97991;-72
2024/01/29 02:29:14;;;;;;;;;;;;;;;7.83;46.73;102226.75;4969099;27;99614;-72
2024/01/29 02:31:41;;;;;;;;;;;;;;;7.82;46.22;102227.81;4963739;28;98606;-64
2024/01/29 02:34:07;;;;;;;;;;;;;;;7.81;46.67;102230.69;4945142;27;98019;-64
2024/01/29 02:36:33;;;;;;;;;;;;;;;7.79;46.65;102220.16;4959082;28;98032;-72
2024/01/29 02:39:00;;;;;;;;;;;;;;;7.80;46.46;102226.34;4956806;27;99199;-65
2024/01/29 02:41:26;;;;;;;;;;;;;;;7.78;46.46;102218.50;4960496;27;98141;-72
2024/01/29 02:43:52;;;;;;;;;;;;;;;7.77;46.46;102224.06;4946019;28;98226;-72
2024/01/29 02:46:18;;;;;;;;;;;;;;;7.76;46.37;102220.56;4942520;27;99198;-65
2024/01/29 02:48:44;;;;;;;;;;;;;;;7.74;46.45;102219.94;4960587;28;98705;-72
2024/01/29 02:51:10;;;;;;;;;;;;;;;7.73;46.71;102212.91;4958579;27;98068;-73
2024/01/29 02:53:36;;;;;;;;;;;;;;;7.73;46.75;102212.91;4946259;27;101877;-65
2024/01/29 02:56:03;;;;;;;;;;;;;;;7.71;46.27;102212.31;4958223;28;98170;-65
2024/01/29 02:58:32;;;;;;;;;;;;;;;7.71;46.34;102211.47;4960149;27;100594;-65
2024/01/29 03:00:58;;;;;;;;;;;;;;;7.69;46.74;102206.31;4948641;28;98115;-65
2024/01/29 03:03:24;;;;;;;;;;;;;;;7.70;46.81;102207.13;4948711;27;98149;-73
2024/01/29 03:05:50;;;;;;;;;;;;;;;7.68;46.56;102204.66;4954767;28;98377;-73
2024/01/29 03:08:17;;;;;;;;;;;;;;;7.68;46.17;102198.47;4953319;27;98199;-72
2024/01/29 03:10:43;;;;;;;;;;;;;;;7.67;46.81;102205.69;4978530;27;98095;-72
2024/01/29 03:13:10;;;;;;;;;;;;;;;7.66;46.91;102193.28;4956811;27;98332;-65
2024/01/29 03:15:36;;;;;;;;;;;;;;;7.65;46.52;102188.97;4959900;28;98158;-65
2024/01/29 03:18:04;;;;;;;;;;;;;;;7.64;46.39;102192.69;4947931;28;117327;-65
2024/01/29 03:20:30;;;;;;;;;;;;;;;7.62;46.58;102187.53;4962235;28;98200;-72
2024/01/29 03:22:56;;;;;;;;;;;;;;;7.63;46.25;102182.97;4944702;28;109282;-64
2024/01/29 03:25:23;;;;;;;;;;;;;;;7.61;46.23;102185.03;4952773;27;98540;-64
2024/01/29 03:27:49;;;;;;;;;;;;;;;7.61;46.61;102182.34;4940239;27;98166;-72
2024/01/29 03:30:15;;;;;;;;;;;;;;;7.59;46.20;102182.56;4956136;27;98055;-72
2024/01/29 03:32:41;;;;;;;;;;;;;;;7.60;46.64;102183.38;4986146;27;98197;-64
2024/01/29 03:35:09;;;;;;;;;;;;;;;7.59;46.34;102177.19;4958318;27;98484;-72
2024/01/29 03:37:36;;;;;;;;;;;;;;;7.57;46.30;102184.63;4975800;27;98165;-72
2024/01/29 03:40:04;;;;;;;;;;;;;;;7.57;46.74;102183.78;4942997;28;98325;-72
2024/01/29 03:42:30;;;;;;;;;;;;;;;7.56;46.69;102180.28;4965369;27;98782;-65
2024/01/29 03:44:57;;;;;;;;;;;;;;;7.56;46.37;102184.84;4940600;28;99652;-69
2024/01/29 03:47:23;;;;;;;;;;;;;;;7.55;46.79;102181.31;4947264;27;99843;-64
2024/01/29 03:49:49;;;;;;;;;;;;;;;7.54;46.26;102187.69;4971553;27;98268;-64
2024/01/29 03:52:15;;;;;;;;;;;;;;;7.53;46.66;102186.06;4959353;27;99402;-65
2024/01/29 03:54:41;;;;;;;;;;;;;;;7.52;46.35;102179.03;4946176;27;98178;-64
2024/01/29 03:57:08;;;;;;;;;;;;;;;7.50;46.66;102183.78;4943257;27;98394;-73
2024/01/29 03:59:35;;;;;;;;;;;;;;;7.52;46.30;102180.91;4987259;27;100136;-72
2024/01/29 04:02:02;;;;;;;;;;;;;;;7.52;46.30;102178.22;4941116;28;98050;-65
2024/01/29 04:04:28;;;;;;;;;;;;;;;7.51;46.68;102174.72;4969685;27;98349;-64
2024/01/29 04:06:54;;;;;;;;;;;;;;;7.50;46.46;102174.91;4976445;27;100107;-65
2024/01/29 04:09:22;;;;;;;;;;;;;;;7.49;46.39;102175.94;4958357;28;98201;-65
2024/01/29 04:11:53;;;;;;;;;;;;;;;7.48;46.47;102164.38;4958900;27;98221;-64
2024/01/29 04:14:21;;;;;;;;;;;;;;;7.47;46.47;102176.16;4974117;27;98054;-72
2024/01/29 04:16:47;;;;;;;;;;;;;;;7.52;46.35;102168.31;4962863;27;98727;-64
2024/01/29 04:19:14;;;;;;;;;;;;;;;7.57;46.37;102179.25;4958640;27;99876;-72
2024/01/29 04:21:43;;;;;;;;;;;;;;;7.62;46.63;102178.63;4949085;27;98024;-65
2024/01/29 04:24:10;;;;;;;;;;;;;;;7.68;46.64;102179.69;4961887;27;98176;-72
2024/01/29 04:26:37;;;;;;;;;;;;;;;7.71;46.81;102180.09;4948674;27;98649;-64
2024/01/29 04:29:04;;;;;;;;;;;;;;;7.73;46.78;102175.31;4946233;28;98344;-65
2024/01/29 04:31:30;;;;;;;;;;;;;;;7.75;46.87;102172.44;4946832;27;98223;-65
2024/01/29 04:33:56;;;;;;;;;;;;;;;7.76;46.29;102166.03;4977852;27;98228;-72
2024/01/29 04:36:22;;;;;;;;;;;;;;;7.77;46.78;102171.19;4961608;27;98565;-65
2024/01/29 04:38:49;;;;;;;;;;;;;;;7.77;46.17;102175.75;4956344;27;99109;-71
2024/01/29 04:41:19;;;;;;;;;;;;;;;7.78;46.99;102177.38;4976630;27;98366;-64
2024/01/29 04:43:45;;;;;;;;;;;;;;;7.78;46.64;102175.56;4946560;28;98098;-64
2024/01/29 04:46:11;;;;;;;;;;;;;;;7.79;46.63;102176.38;4974429;27;98840;-64
2024/01/29 04:48:39;;;;;;;;;;;;;;;7.77;46.28;102173.88;4947461;28;98203;-65
2024/01/29 04:51:07;;;;;;;;;;;;;;;7.77;46.90;102170.38;4957783;27;98637;-64
2024/01/29 04:53:34;;;;;;;;;;;;;;;7.76;46.36;102169.56;4963532;27;98624;-65
2024/01/29 04:56:03;;;;;;;;;;;;;;;7.76;46.38;102168.72;4958922;27;98473;-72
2024/01/29 04:58:30;;;;;;;;;;;;;;;7.75;46.80;102167.09;4950352;27;97999;-65
2024/01/29 05:00:56;;;;;;;;;;;;;;;7.74;46.67;102160.91;4960254;27;98148;-64
2024/01/29 05:03:22;;;;;;;;;;;;;;;7.74;46.36;102168.09;4986573;27;98240;-72
2024/01/29 05:05:48;;;;;;;;;;;;;;;7.72;46.62;102162.13;4947526;27;119038;-72
2024/01/29 05:08:15;;;;;;;;;;;;;;;7.73;46.26;102161.09;4963666;27;98250;-72
2024/01/29 05:10:41;;;;;;;;;;;;;;;7.71;46.80;102166.66;4944580;28;103100;-64
2024/01/29 05:13:08;;;;;;;;;;;;;;;7.70;46.83;102169.53;4960058;27;98181;-64
2024/01/29 05:15:35;;;;;;;;;;;;;;;7.69;46.84;102171.41;4978404;27;98358;-65
2024/01/29 05:18:01;;;;;;;;;;;;;;;7.69;46.57;102178.63;4949032;27;98322;-64
2024/01/29 05:20:27;;;;;;;;;;;;;;;7.68;46.40;102175.13;4948051;27;98720;-65
2024/01/29 05:22:53;;;;;;;;;;;;;;;7.67;46.58;102169.97;4944991;27;98028;-72
2024/01/29 05:25:20;;;;;;;;;;;;;;;7.66;46.06;102171.81;4963527;27;100017;-65
2024/01/29 05:27:46;;;;;;;;;;;;;;;7.65;46.63;102167.47;4953483;28;98462;-72
2024/01/29 05:30:12;;;;;;;;;;;;;;;7.64;46.90;102160.47;4960812;27;98254;-65
2024/01/29 05:32:38;;;;;;;;;;;;;;;7.62;46.35;102168.75;4943308;28;98081;-65
2024/01/29 05:35:05;;;;;;;;;;;;;;;7.61;46.32;102172.44;4940514;27;98661;-72
2024/01/29 05:37:33;;;;;;;;;;;;;;;7.60;46.37;102173.47;4958506;28;98171;-64
2024/01/29 05:40:00;;;;;;;;;;;;;;;7.58;46.43;102169.34;4955993;27;99481;-65
2024/01/29 05:42:26;;;;;;;;;;;;;;;7.58;46.34;102162.13;4942798;27;98484;-72
2024/01/29 05:44:52;;;;;;;;;;;;;;;7.57;46.63;102159.63;4941656;27;98119;-72
2024/01/29 05:47:18;;;;;;;;;;;;;;;7.55;46.31;102151.81;4940296;27;98779;-72
2024/01/29 05:49:44;;;;;;;;;;;;;;;7.53;46.51;102153.84;4970943;27;98156;-64
2024/01/29 05:52:10;;;;;;;;;;;;;;;7.53;46.61;102153.03;4939265;27;98437;-64
2024/01/29 05:54:36;;;;;;;;;;;;;;;7.51;46.85;102157.78;4940878;28;109746;-72
2024/01/29 05:57:03;;;;;;;;;;;;;;;7.50;46.90;102165.00;4955604;27;98402;-64
2024/01/29 05:59:29;;;;;;;;;;;;;;;7.50;46.25;102170.38;4940640;27;100084;-72
2024/01/29 06:01:55;;;;;;;;;;;;;;;7.49;46.45;102165.22;4954891;27;98206;-72
2024/01/29 06:04:21;;;;;;;;;;;;;;;7.49;46.51;102174.09;4955579;27;98655;-64
2024/01/29 06:06:47;;;;;;;;;;;;;;;7.48;46.83;102172.44;4941602;27;97977;-72
2024/01/29 06:09:15;;;;;;;;;;;;;;;7.46;46.54;102179.03;4972080;27;99736;-64
2024/01/29 06:11:41;;;;;;;;;;;;;;;7.46;46.69;102179.84;4956218;28;98253;-64
2024/01/29 06:14:07;;;;;;;;;;;;;;;7.46;46.53;102173.66;4939983;27;99675;-64
2024/01/29 06:16:34;;;;;;;;;;;;;;;7.45;46.39;102182.75;4973601;27;98328;-72
2024/01/29 06:19:00;;;;;;;;;;;;;;;7.45;46.95;102177.38;4942411;28;98750;-65
2024/01/29 06:21:26;;;;;;;;;;;;;;;7.43;46.33;102182.97;4925608;28;99421;-64
2024/01/29 06:23:52;;;;;;;;;;;;;;;7.42;46.38;102185.84;4939525;28;98663;-72
2024/01/29 06:26:18;;;;;;;;;;;;;;;7.42;46.52;102183.16;4923975;28;98343;-72
2024/01/29 06:28:44;;;;;;;;;;;;;;;7.40;46.37;102185.22;4942382;28;106578;-72
2024/01/29 06:31:11;;;;;;;;;;;;;;;7.40;46.23;102178.00;4938407;28;97836;-72
2024/01/29 06:33:38;;;;;;;;;;;;;;;7.40;46.55;102178.00;4972062;27;98234;-64
2024/01/29 06:36:07;;;;;;;;;;;;;;;7.39;46.17;102171.00;4971891;27;99226;-64
2024/01/29 06:38:33;;;;;;;;;;;;;;;7.38;46.72;102177.38;4944426;28;98959;-64
2024/01/29 06:40:59;;;;;;;;;;;;;;;7.38;46.54;102180.06;4955759;28;98008;-72
2024/01/29 06:43:27;;;;;;;;;;;;;;;7.37;46.53;102187.28;4922567;28;98707;-72
2024/01/29 06:45:53;;;;;;;;;;;;;;;7.38;46.37;102190.78;4939653;28;99739;-64
2024/01/29 06:48:19;;;;;;;;;;;;;;;7.38;46.31;102196.16;4937505;28;98240;-72
2024/01/29 06:50:46;;;;;;;;;;;;;;;7.38;46.46;102199.66;4924762;28;98484;-73
2024/01/29 06:53:13;;;;;;;;;;;;;;;7.40;46.40;102190.59;4933803;28;98363;-72
2024/01/29 06:55:39;;;;;;;;;;;;;;;7.38;46.17;102191.59;4924939;28;99007;-72
2024/01/29 06:58:05;;;;;;;;;;;;;;;7.40;46.16;102198.66;4940255;28;98080;-73
2024/01/29 07:00:31;;;;;;;;;;;;;;;7.41;46.65;102194.94;4924434;28;97909;-64
2024/01/29 07:02:57;;;;;;;;;;;;;;;7.42;46.53;102197.41;4940179;28;98396;-64
2024/01/29 07:05:23;;;;;;;;;;;;;;;7.44;46.42;102202.56;4955688;28;98662;-72
2024/01/29 07:07:49;;;;;;;;;;;;;;;7.44;46.63;102202.56;4942044;28;98386;-72
2024/01/29 07:10:16;;;;;;;;;;;;;;;7.43;46.12;102196.38;4941587;28;98104;-72
2024/01/29 07:12:42;;;;;;;;;;;;;;;7.46;46.39;102201.31;4944173;27;98222;-64
2024/01/29 07:15:09;;;;;;;;;;;;;;;7.46;46.55;102195.97;4942578;27;99771;-72
2024/01/29 07:17:35;;;;;;;;;;;;;;;7.48;46.67;102201.97;4962420;27;99770;-72
2024/01/29 07:20:05;;;;;;;;;;;;;;;7.51;46.57;102195.38;4941413;28;98024;-72
2024/01/29 07:22:37;;;;;;;;;;;;;;;7.53;46.18;102196.78;4951596;27;98797;-72
2024/01/29 07:25:04;;;;;;;;;;;;;;;7.55;46.42;102196.59;4961059;28;98900;-72
2024/01/29 07:27:30;;;;;;;;;;;;;;;7.60;46.13;102196.81;4942140;27;100024;-72
2024/01/29 07:29:56;;;;;;;;;;;;;;;7.65;46.36;102190.81;4952256;27;98060;-73
2024/01/29 07:32:22;;;;;;;;;;;;;;;7.69;46.15;102189.38;4966682;27;98815;-72
2024/01/29 07:34:48;;;;;;;;;;;;;;;7.73;46.27;102190.59;4971089;27;99237;-64
2024/01/29 07:37:15;;;;;;;;;;;;;;;7.80;45.89;102188.75;4969643;27;98509;-65
2024/01/29 07:39:42;;;;;;;;;;;;;;;7.85;45.95;102192.47;4939673;27;98211;-72
2024/01/29 07:42:08;;;;;;;;;;;;;;;7.92;45.86;102191.63;4949366;28;98242;-72
2024/01/29 07:44:34;;;;;;;;;;;;;;;8.00;46.27;102189.56;4951317;27;98404;-64
2024/01/29 07:47:00;;;;;;;;;;;;;;;8.10;45.75;102189.16;4959399;27;98140;-65
2024/01/29 07:49:27;;;;;;;;;;;;;;;8.19;45.94;102192.44;4940754;27;98206;-72
2024/01/29 07:51:53;;;;;;;;;;;;;;;8.27;46.21;102190.34;4945484;27;98158;-65
2024/01/29 07:54:19;;;;;;;;;;;;;;;8.40;45.53;102192.19;4984965;27;100338;-64
2024/01/29 07:56:46;;;;;;;;;;;;;;;8.57;45.91;102193.41;4944389;27;98095;-65
2024/01/29 07:59:12;;;;;;;;;;;;;;;8.79;45.09;102188.53;4943255;27;98217;-64
2024/01/29 08:01:39;;;;;;;;;;;;;;;9.15;45.02;102180.91;4956514;27;98247;-64
2024/01/29 08:04:05;;;;;;;;;;;;;;;9.56;44.65;102189.34;4957245;27;99857;-72
2024/01/29 08:06:31;;;;;;;;;;;;;;;9.91;44.87;102183.44;4953988;27;98346;-72
2024/01/29 08:08:58;;;;;;;;;;;;;;;10.38;44.72;102183.03;4943241;27;98442;-73
2024/01/29 08:11:23;;;;;;;;;;;;;;;10.77;44.62;102173.63;4973922;27;98507;-65
2024/01/29 08:13:50;;;;;;;;;;;;;;;11.41;43.97;102173.97;4953771;27;127772;-73
2024/01/29 08:16:16;;;;;;;;;;;;;;;12.03;43.58;102167.13;4944826;27;98699;-65
2024/01/29 08:18:42;;;;;;;;;;;;;;;12.58;43.78;102170.44;4945116;27;98369;-73
2024/01/29 08:21:08;;;;;;;;;;;;;;;12.96;43.55;102176.06;4973177;27;99644;-73
2024/01/29 08:23:35;;;;;;;;;;;;;;;13.39;43.62;102171.16;4939914;27;98378;-73
2024/01/29 08:26:02;;;;;;;;;;;;;;;13.95;43.41;102161.19;4953047;27;99133;-65
2024/01/29 08:28:28;;;;;;;;;;;;;;;14.57;43.12;102154.72;4945242;27;98187;-65
2024/01/29 08:30:58;;;;;;;;;;;;;;;15.19;42.73;102143.44;4957304;27;99555;-66
2024/01/29 08:33:25;;;;;;;;;;;;;;;15.73;42.81;102139.84;4941590;27;97882;-74
2024/01/29 08:35:51;;;;;;;;;;;;;;;16.33;42.77;102142.06;4966202;27;98639;-66
2024/01/29 08:38:18;;;;;;;;;;;;;;;16.99;42.79;102136.03;4939264;27;117859;-66
2024/01/29 08:40:45;;;;;;;;;;;;;;;17.58;42.61;102140.97;4958133;27;98703;-66
2024/01/29 08:43:10;;;;;;;;;;;;;;;18.35;42.30;102138.06;4960561;27;99488;-66
2024/01/29 08:45:37;;;;;;;;;;;;;;;19.13;42.02;102140.09;4958549;28;99609;-66
2024/01/29 08:48:03;;;;;;;;;;;;;;;19.59;42.07;102140.53;4958876;27;98289;-74
2024/01/29 08:50:33;;;;;;;;;;;;;;;19.99;42.08;102145.91;4954950;27;99827;-66
2024/01/29 08:52:59;;;;;;;;;;;;;;;20.27;42.22;102142.28;4960679;27;100241;-66
2024/01/29 08:55:25;;;;;;;;;;;;;;;20.75;42.33;102150.47;4961560;27;97969;-66
2024/01/29 08:57:51;;;;;;;;;;;;;;;21.23;42.37;102152.22;4952121;27;98574;-74
2024/01/29 09:00:17;;;;;;;;;;;;;;;21.75;42.07;102158.47;4974796;27;119641;-74
2024/01/29 09:02:44;;;;;;;;;;;;;;;22.44;41.76;102161.25;4958006;27;98190;-74
2024/01/29 09:05:13;;;;;;;;;;;;;;;23.41;41.11;102151.63;4967356;27;98025;-74
2024/01/29 09:07:40;;;;;;;;;;;;;;;24.29;40.56;102163.88;4941415;28;101367;-66
2024/01/29 09:10:06;;;;;;;;;;;;;;;24.79;40.26;102158.81;4957976;27;98475;-66
2024/01/29 09:12:33;;;;;;;;;;;;;;;24.92;40.68;102160.59;4975374;27;98292;-74
2024/01/29 09:14:59;;;;;;;;;;;;;;;24.87;41.03;102165.47;4958564;27;98218;-67
2024/01/29 09:17:25;;;;;;;;;;;;;;;24.90;41.27;102160.09;4972542;27;98242;-66
2024/01/29 09:19:51;;;;;;;;;;;;;;;24.94;41.72;102166.59;4948252;27;99805;-67
2024/01/29 09:22:18;;;;;;;;;;;;;;;24.90;41.92;102173.91;4962319;27;97896;-66
2024/01/29 09:24:44;;;;;;;;;;;;;;;24.96;42.03;102167.09;4963142;27;99310;-66
2024/01/29 09:27:11;;;;;;;;;;;;;;;25.06;41.97;102165.94;4980711;27;98390;-66
2024/01/29 09:29:37;;;;;;;;;;;;;;;25.25;42.15;102160.13;4943843;27;98238;-74
2024/01/29 09:32:03;;;;;;;;;;;;;;;25.46;41.92;102157.47;4960766;27;97964;-67
2024/01/29 09:34:29;;;;;;;;;;;;;;;25.61;42.23;102159.72;4940230;27;100155;-74
2024/01/29 09:36:55;;;;;;;;;;;;;;;25.76;42.20;102160.34;4962961;27;98111;-66
2024/01/29 09:39:24;;;;;;;;;;;;;;;25.76;42.21;102155.63;4959503;27;98316;-74
2024/01/29 09:41:52;;;;;;;;;;;;;;;26.00;42.03;102160.59;4972802;27;99817;-74
2024/01/29 09:44:17;;;;;;;;;;;;;;;25.95;42.32;102161.59;4956766;27;98870;-67
2024/01/29 09:46:44;;;;;;;;;;;;;;;26.06;42.04;102156.50;4974934;27;98346;-74
2024/01/29 09:49:10;;;;;;;;;;;;;;;26.47;41.87;102156.97;4970237;27;101901;-74
2024/01/29 09:51:36;;;;;;;;;;;;;;;27.46;40.95;102156.28;4960833;27;98063;-74
2024/01/29 09:54:03;;;;;;;;;;;;;;;29.00;39.62;102160.09;4941805;27;98359;-74
2024/01/29 09:56:29;;;;;;;;;;;;;;;29.76;39.14;102163.78;4961070;27;98191;-67
2024/01/29 09:58:56;;;;;;;;;;;;;;;28.23;40.40;102168.41;4937098;27;99334;-67
2024/01/29 10:01:22;;;;;;;;;;;;;;;26.87;42.16;102162.84;4973409;27;98426;-67
2024/01/29 10:03:49;;;;;;;;;;;;;;;25.99;42.90;102156.22;4948162;27;99586;-74
2024/01/29 10:06:15;;;;;;;;;;;;;;;25.31;43.29;102150.56;4977448;27;98818;-67
2024/01/29 10:08:41;;;;;;;;;;;;;;;24.73;43.64;102147.13;4975538;27;98822;-67
2024/01/29 10:11:07;;;;;;;;;;;;;;;24.22;43.86;102142.31;4976575;27;98204;-73
2024/01/29 10:13:34;;;;;;;;;;;;;;;23.73;44.04;102136.78;4960301;27;98914;-67
2024/01/29 10:16:00;;;;;;;;;;;;;;;23.32;44.62;102133.44;4976475;27;98710;-74
2024/01/29 10:18:26;;;;;;;;;;;;;;;22.92;44.60;102133.31;4962533;27;98233;-73
2024/01/29 10:21:05;;;;;;;;;;;;;;;22.53;44.63;102132.78;4976381;27;99701;-73
2024/01/29 10:23:31;;;;;;;;;;;;;;;22.13;45.07;102131.72;4960644;27;98492;-67
2024/01/29 10:25:57;;;;;;;;;;;;;;;21.78;44.88;102134.00;4940865;27;98748;-66
2024/01/29 10:28:26;;;;;;;;;;;;;;;21.44;45.40;102128.84;4960978;27;99762;-73
2024/01/29 10:30:55;;;;;;;;;;;;;;;21.13;45.25;102134.00;4944374;27;98448;-67
2024/01/29 10:33:22;;;;;;;;;;;;;;;20.84;45.44;102126.75;4973459;27;98474;-73
2024/01/29 10:35:49;;;;;;;;;;;;;;;20.58;45.38;102130.97;4942332;27;98479;-66
2024/01/29 10:38:21;;;;;;;;;;;;;;;20.34;45.38;102117.28;4955684;27;98259;-66
2024/01/29 10:40:47;;;;;;;;;;;;;;;20.10;45.53;102125.53;4943690;27;99848;-66
2024/01/29 10:43:18;;;;;;;;;;;;;;;19.90;45.46;102118.38;4971680;27;113104;-66
2024/01/29 10:45:47;;;;;;;;;;;;;;;19.69;45.41;102117.78;4964750;27;99558;-66
2024/01/29 10:48:24;;;;;;;;;;;;;;;19.50;45.55;102103.97;4946125;27;99874;-66
2024/01/29 10:50:51;;;;;;;;;;;;;;;19.33;45.57;102109.03;4957237;27;100027;-73
2024/01/29 10:53:17;;;;;;;;;;;;;;;19.18;45.42;102112.75;4944355;27;98438;-66
2024/01/29 10:55:44;;;;;;;;;;;;;;;19.05;45.67;102110.63;4944658;27;98429;-73
2024/01/29 10:58:12;;;;;;;;;;;;;;;18.91;45.62;102107.75;4945335;27;98262;-73
2024/01/29 11:00:42;;;;;;;;;;;;;;;18.80;45.61;102103.44;4943427;27;97827;-66
2024/01/29 11:03:09;;;;;;;;;;;;;;;18.70;45.54;102103.47;4963182;27;98027;-73
2024/01/29 11:05:36;;;;;;;;;;;;;;;18.60;45.33;102107.91;4948690;27;99546;-73
2024/01/29 11:08:02;;;;;;;;;;;;;;;18.52;45.58;102104.97;4941191;27;99965;-73
2024/01/29 11:10:28;;;;;;;;;;;;;;;18.46;45.43;102108.78;4942579;27;99087;-73
2024/01/29 11:12:56;;;;;;;;;;;;;;;18.38;45.57;102102.81;4958154;27;98052;-66
2024/01/29 11:15:22;;;;;;;;;;;;;;;18.33;45.35;102111.03;4971678;27;98438;-74
2024/01/29 11:17:48;;;;;;;;;;;;;;;18.29;45.39;102099.06;4990720;27;99117;-73
2024/01/29 11:20:15;;;;;;;;;;;;;;;18.26;45.38;102098.78;4952458;27;113076;-73
2024/01/29 11:22:51;;;;;;;;;;;;;;;18.21;45.37;102098.81;4955263;27;104460;-66
2024/01/29 11:25:18;;;;;;;;;;;;;;;18.15;45.18;102092.56;4961461;27;98229;-73
2024/01/29 11:27:45;;;;;;;;;;;;;;;18.09;45.22;102091.78;4956551;27;98249;-67
2024/01/29 11:30:19;;;;;;;;;;;;;;;18.03;45.34;102092.06;4947077;27;109977;-66
2024/01/29 11:32:46;;;;;;;;;;;;;;;17.94;45.51;102097.28;4959928;27;98120;-66
2024/01/29 11:35:13;;;;;;;;;;;;;;;17.86;45.42;102093.22;4974232;27;99112;-67
2024/01/29 11:37:40;;;;;;;;;;;;;;;17.79;45.38;102092.69;4970708;27;98299;-66
2024/01/29 11:40:29;;;;;;;;;;;;;;;17.71;45.32;102087.75;4971975;27;99076;-66
2024/01/29 11:42:55;;;;;;;;;;;;;;;17.59;45.54;102079.88;4969751;27;99389;-73
2024/01/29 11:45:22;;;;;;;;;;;;;;;17.49;45.36;102079.91;4961116;27;97977;-67
2024/01/29 11:47:48;;;;;;;;;;;;;;;17.39;45.52;102080.72;4957595;27;110073;-74
2024/01/29 11:50:14;;;;;;;;;;;;;;;17.30;45.63;102084.28;4958875;27;117501;-72
2024/01/29 11:52:40;;;;;;;;;;;;;;;17.20;45.53;102081.56;4954958;27;98467;-72
2024/01/29 11:55:06;;;;;;;;;;;;;;;17.10;45.68;102085.94;4946565;27;98266;-72
2024/01/29 11:57:32;;;;;;;;;;;;;;;17.00;45.78;102075.00;4955677;27;99966;-64
2024/01/29 12:00:01;;;;;;;;;;;;;;;16.91;45.55;102087.53;4991876;27;98483;-65
2024/01/29 12:02:30;;;;;;;;;;;;;;;16.81;45.61;102080.16;4988814;27;99334;-72
2024/01/29 12:04:57;;;;;;;;;;;;;;;16.72;45.80;102083.69;4956171;27;97903;-72
2024/01/29 12:07:23;;;;;;;;;;;;;;;16.61;45.54;102077.38;4959185;27;100008;-65
2024/01/29 12:09:49;;;;;;;;;;;;;;;16.52;45.71;102071.66;4956481;27;123495;-72
2024/01/29 12:12:15;;;;;;;;;;;;;;;16.43;45.76;102071.38;4954428;27;120323;-72
2024/01/29 12:14:41;;;;;;;;;;;;;;;16.36;45.88;102069.97;4958232;27;105783;-72
2024/01/29 12:17:09;;;;;;;;;;;;;;;16.30;45.63;102068.31;4972132;27;98730;-65
2024/01/29 12:19:35;;;;;;;;;;;;;;;16.26;45.89;102070.75;4958728;27;98035;-65
2024/01/29 12:22:01;;;;;;;;;;;;;;;16.26;45.77;102069.94;4943548;27;98454;-73
2024/01/29 12:24:27;;;;;;;;;;;;;;;16.28;45.78;102071.31;4944931;27;98176;-72
2024/01/29 12:26:53;;;;;;;;;;;;;;;16.28;45.70;102060.44;4968496;27;98879;-65
2024/01/29 12:29:20;;;;;;;;;;;;;;;16.29;45.72;102069.41;4975704;27;98073;-72
2024/01/29 12:31:46;;;;;;;;;;;;;;;16.27;45.67;102061.53;4957467;27;98317;-65
2024/01/29 12:34:23;;;;;;;;;;;;;;;16.26;45.67;102057.16;4962824;27;98352;-73
2024/01/29 12:36:57;;;;;;;;;;;;;;;16.26;45.75;102062.59;4957474;27;98596;-72
2024/01/29 12:39:24;;;;;;;;;;;;;;;16.24;45.82;102062.06;4974410;27;98134;-64